Majesty of the Seas — C6FZ8 — position and weather

sailwx.info

Track history (hours):
 
Tides and Currents Weather Stations Pressure Air Temp Water Temp Dewpoint Dewpoint Depression Visibility Wind Speed Wind Dir Waves Ship Positions

Majesty of the Seas (Bahamas)

Last reported at 2019-Apr-25 06:00 UTC. Time now 2019-Apr-25 11:53 UTC.
Position N 23°36' W 082°06'.

Length 268 m; draft 8 m.

Type: Ship. MMSI: 311734000.

Wind from 120 at 16 knots

Barometer 1014.3 mb
Air temperature 24.0 ° C
Visibility: greater than 10.8 NM
Dewpoint 17.6 ° C
Water temperature 28.0 ° C

Date/timePositionNaut miles runAvg speedWind from/ knotsBaromVisibWave heightAir tempDewpointWater temp
2019-Apr-25 06:00N 23°36' W 082°06'42 7.0 120 / 161014.310.8 24.017.628.0
2019-Apr-25 00:00N 24°12' W 081°42'47 2.0 080 / 121015.310.8 24.017.627.0
2019-Apr-24 00:00N 23°54' W 080°54'110 6.1 060 / 131016.610.8 24.015.828.2
2019-Apr-23 06:00N 25°18' W 079°36'22 7.9 050 / 131018.810.8 23.012.628.0
2019-Apr-23 03:15N 25°40' W 079°39'2 6.9
2019-Apr-23 02:58N 25°41' W 079°39'3 6.9
2019-Apr-23 02:29N 25°45' W 079°39'3 6.8
2019-Apr-23 02:00N 25°48' W 079°39'3 6.7
2019-Apr-23 01:31N 25°51' W 079°39'3 6.5
2019-Apr-23 01:00N 25°55' W 079°39'3 6.3
2019-Apr-23 00:30N 25°58' W 079°39'3 6.1
2019-Apr-23 00:00N 26°01' W 079°39'3352.5
2019-Apr-23 00:00N 26°00' W 079°36'611.6 040 / 141019.210.8 23.014.627.9
2019-Apr-22 23:30N 26°04' W 079°41'3 6.0
2019-Apr-22 23:00N 26°06' W 079°43'4 7.7
2019-Apr-22 22:31N 26°06' W 079°47'4 7.9
2019-Apr-22 22:01N 26°06' W 079°52'4 7.8
2019-Apr-22 21:30N 26°06' W 079°56'4 8.2
2019-Apr-22 21:00N 26°06' W 080°01'4 7.3
2019-Apr-22 20:31N 26°06' W 080°05'2 4.7
2019-Apr-22 20:00N 26°05' W 080°07'0 0.0
2019-Apr-22 19:30N 26°05' W 080°07'0 0.0
2019-Apr-22 19:00N 26°05' W 080°07'0 0.0
2019-Apr-22 18:30N 26°05' W 080°07'0 0.0
2019-Apr-22 18:00N 26°05' W 080°07'0 0.0
2019-Apr-22 17:30N 26°05' W 080°07'0 0.0
2019-Apr-22 17:00N 26°05' W 080°07'0 0.0
2019-Apr-22 16:30N 26°05' W 080°07'0 0.0
2019-Apr-22 16:00N 26°05' W 080°07'0 0.0
2019-Apr-22 15:30N 26°05' W 080°07'0 0.0
2019-Apr-22 15:00N 26°05' W 080°07'0 0.0
2019-Apr-22 14:27N 26°05' W 080°07'0 0.0
2019-Apr-22 14:00N 26°05' W 080°07'0 0.0
2019-Apr-22 13:27N 26°05' W 080°07'0 0.0
2019-Apr-22 13:00N 26°05' W 080°07'0 0.0
2019-Apr-22 12:30N 26°05' W 080°07'0 0.0
2019-Apr-22 12:00N 26°05' W 080°07'0 0.0
2019-Apr-22 11:27N 26°05' W 080°07'0 0.0
2019-Apr-22 11:01N 26°05' W 080°07'3 5.7
2019-Apr-22 10:31N 26°06' W 080°04'510.4
2019-Apr-22 10:00N 26°07' W 079°58'815.4
2019-Apr-22 09:30N 26°09' W 079°50'816.1
2019-Apr-22 09:00N 26°11' W 079°41'815.4
2019-Apr-22 08:30N 26°13' W 079°33'713.7
2019-Apr-22 08:01N 26°14' W 079°26'3416.7
2019-Apr-22 06:00N 26°12' W 078°48'8614.4 020 / 161020.410.8 22.015.328.0
2019-Apr-22 00:00N 25°30' W 077°24'110 4.5 010 / 131019.210.8 23.012.627.0
2019-Apr-20 23:17N 25°52' W 079°24'415.6
2019-Apr-20 23:00N 25°48' W 079°26'816.6
2019-Apr-20 22:30N 25°40' W 079°29'918.0
2019-Apr-20 22:00N 25°31' W 079°30'17517.5
2019-Apr-20 12:00N 23°30' W 081°48'38 1.6 310 / 191015.510.8 23.016.528.0
2019-Apr-19 12:00N 23°12' W 082°24'19416.2 160 / 161012.210.8 25.023.528.2
2019-Apr-19 00:00N 25°18' W 079°42'2017.9 130 / 201013.510.8 26.021.528.0
2019-Apr-18 22:52N 25°38' W 079°46'513.9
2019-Apr-18 22:30N 25°43' W 079°47'713.5
2019-Apr-18 22:00N 25°49' W 079°49'713.4
2019-Apr-18 21:30N 25°54' W 079°55'714.1
2019-Apr-18 21:01N 25°59' W 079°59'714.7
2019-Apr-18 20:30N 26°05' W 080°05'2 4.0
2019-Apr-18 20:00N 26°05' W 080°07'0 0.0
2019-Apr-18 19:30N 26°05' W 080°07'0 0.0
2019-Apr-18 19:00N 26°05' W 080°07'0 0.0
2019-Apr-18 18:27N 26°05' W 080°07'0 0.0
2019-Apr-18 18:00N 26°05' W 080°07'0 0.0
2019-Apr-18 17:30N 26°05' W 080°07'0 0.0
2019-Apr-18 17:00N 26°05' W 080°07'0 0.0
2019-Apr-18 16:30N 26°05' W 080°07'0 0.0
2019-Apr-18 16:00N 26°05' W 080°07'0 0.0
2019-Apr-18 15:30N 26°05' W 080°07'0 0.0
2019-Apr-18 15:00N 26°05' W 080°07'0 0.0
2019-Apr-18 14:30N 26°05' W 080°07'0 0.0
2019-Apr-18 14:00N 26°05' W 080°07'0 0.0
2019-Apr-18 13:30N 26°05' W 080°07'0 0.0
2019-Apr-18 13:00N 26°05' W 080°07'0 0.0
2019-Apr-18 12:30N 26°05' W 080°07'0 0.0
2019-Apr-18 11:57N 26°05' W 080°07'0 0.0
2019-Apr-18 11:27N 26°05' W 080°07'0 0.0
2019-Apr-18 11:00N 26°05' W 080°07'2 4.4
2019-Apr-18 10:30N 26°06' W 080°05'5 9.8
2019-Apr-18 10:01N 26°04' W 079°60'714.4
2019-Apr-18 09:30N 25°58' W 079°55'713.9
2019-Apr-18 09:00N 25°53' W 079°50'713.9
2019-Apr-18 08:30N 25°46' W 079°47'714.0
2019-Apr-18 08:00N 25°40' W 079°45'714.2
2019-Apr-18 07:30N 25°33' W 079°45'714.1
2019-Apr-18 07:01N 25°26' W 079°45'25713.5
2019-Apr-17 12:00N 23°24' W 083°54'22018.4 110 / 211016.210.8 25.020.428.0
2019-Apr-17 00:00N 20°48' W 086°42'2099.0 110 / 161015.510.8 28.022.128.9
2019-Apr-16 23:47N 20°35' W 086°58'415.3
2019-Apr-16 23:30N 20°30' W 086°59'2 2.9
2019-Apr-16 22:57N 20°29' W 086°59'0 0.0
2019-Apr-16 22:30N 20°29' W 086°59'0 0.0
2019-Apr-16 21:57N 20°29' W 086°59'0 0.0
2019-Apr-16 21:30N 20°29' W 086°59'0 0.0
2019-Apr-16 20:51N 20°29' W 086°59'0 0.0
2019-Apr-16 20:27N 20°29' W 086°59'0 0.0
2019-Apr-16 20:00N 20°29' W 086°59'0 0.0
2019-Apr-16 19:30N 20°29' W 086°59'0 0.0
2019-Apr-16 19:00N 20°29' W 086°59'0 0.0
2019-Apr-16 18:27N 20°29' W 086°59'0 0.0
2019-Apr-16 18:00N 20°29' W 086°59'0 0.0
2019-Apr-16 17:30N 20°29' W 086°59'0 0.0
2019-Apr-16 16:57N 20°29' W 086°59'0 0.0
2019-Apr-16 16:30N 20°29' W 086°59'0 0.0
2019-Apr-16 16:00N 20°29' W 086°59'0 0.0
2019-Apr-16 15:30N 20°29' W 086°59'0 0.0
2019-Apr-16 15:00N 20°29' W 086°59'0 0.0
2019-Apr-16 14:30N 20°29' W 086°59'0 0.0
2019-Apr-16 13:54N 20°29' W 086°59'0 0.0
2019-Apr-16 13:30N 20°29' W 086°59'0 0.0
2019-Apr-16 13:00N 20°29' W 086°59'0 0.0
2019-Apr-16 12:30N 20°29' W 086°59'0 0.0
2019-Apr-16 12:00N 20°29' W 086°59'1 2.7
2019-Apr-16 11:30N 20°30' W 086°60'3 6.9
2019-Apr-16 11:00N 20°28' W 087°03'4611.4
2019-Apr-16 07:00N 19°42' W 087°00'24 1.3 090 / 151015.9 26.023.1
2019-Apr-15 13:00N 19°18' W 087°00'32846.8 130 / 61014.5 5.4 27.024.128.4
2019-Apr-15 06:00N 24°42' W 086°06'   130 / 181014.310.8 26.019.928.0
Track history (hours):
 
Tides and Currents Weather Stations Pressure Air Temp Water Temp Dewpoint Dewpoint Depression Visibility Wind Speed Wind Dir Waves Ship Positions

Majesty of the Seas (Bahamas)

Last reported at 2019-Apr-25 06:00 UTC. Time now 2019-Apr-25 11:53 UTC.
Position N 23°36' W 082°06'.

Length 268 m; draft 8 m.

Type: Ship. MMSI: 311734000.

Wind from 120 at 16 knots

Barometer 1014.3 mb
Air temperature 24.0 ° C
Visibility: greater than 10.8 NM
Dewpoint 17.6 ° C
Water temperature 28.0 ° C

Date/timePositionNaut miles runAvg speedWind from/ knotsBaromVisibWave heightAir tempDewpointWater temp
2019-Apr-25 06:00N 23°36' W 082°06'42 7.0 120 / 161014.310.8 24.017.628.0
2019-Apr-25 00:00N 24°12' W 081°42'47 2.0 080 / 121015.310.8 24.017.627.0
2019-Apr-24 00:00N 23°54' W 080°54'110 6.1 060 / 131016.610.8 24.015.828.2
2019-Apr-23 06:00N 25°18' W 079°36'22 7.9 050 / 131018.810.8 23.012.628.0
2019-Apr-23 03:15N 25°40' W 079°39'2 6.9
2019-Apr-23 02:58N 25°41' W 079°39'3 6.9
2019-Apr-23 02:29N 25°45' W 079°39'3 6.8
2019-Apr-23 02:00N 25°48' W 079°39'3 6.7
2019-Apr-23 01:31N 25°51' W 079°39'3 6.5
2019-Apr-23 01:00N 25°55' W 079°39'3 6.3
2019-Apr-23 00:30N 25°58' W 079°39'3 6.1
2019-Apr-23 00:00N 26°01' W 079°39'3352.5
2019-Apr-23 00:00N 26°00' W 079°36'611.6 040 / 141019.210.8 23.014.627.9
2019-Apr-22 23:30N 26°04' W 079°41'3 6.0
2019-Apr-22 23:00N 26°06' W 079°43'4 7.7
2019-Apr-22 22:31N 26°06' W 079°47'4 7.9
2019-Apr-22 22:01N 26°06' W 079°52'4 7.8
2019-Apr-22 21:30N 26°06' W 079°56'4 8.2
2019-Apr-22 21:00N 26°06' W 080°01'4 7.3
2019-Apr-22 20:31N 26°06' W 080°05'2 4.7
2019-Apr-22 20:00N 26°05' W 080°07'0 0.0
2019-Apr-22 19:30N 26°05' W 080°07'0 0.0
2019-Apr-22 19:00N 26°05' W 080°07'0 0.0
2019-Apr-22 18:30N 26°05' W 080°07'0 0.0
2019-Apr-22 18:00N 26°05' W 080°07'0 0.0
2019-Apr-22 17:30N 26°05' W 080°07'0 0.0
2019-Apr-22 17:00N 26°05' W 080°07'0 0.0
2019-Apr-22 16:30N 26°05' W 080°07'0 0.0
2019-Apr-22 16:00N 26°05' W 080°07'0 0.0
2019-Apr-22 15:30N 26°05' W 080°07'0 0.0
2019-Apr-22 15:00N 26°05' W 080°07'0 0.0
2019-Apr-22 14:27N 26°05' W 080°07'0 0.0
2019-Apr-22 14:00N 26°05' W 080°07'0 0.0
2019-Apr-22 13:27N 26°05' W 080°07'0 0.0
2019-Apr-22 13:00N 26°05' W 080°07'0 0.0
2019-Apr-22 12:30N 26°05' W 080°07'0 0.0
2019-Apr-22 12:00N 26°05' W 080°07'0 0.0
2019-Apr-22 11:27N 26°05' W 080°07'0 0.0
2019-Apr-22 11:01N 26°05' W 080°07'3 5.7
2019-Apr-22 10:31N 26°06' W 080°04'510.4
2019-Apr-22 10:00N 26°07' W 079°58'815.4
2019-Apr-22 09:30N 26°09' W 079°50'816.1
2019-Apr-22 09:00N 26°11' W 079°41'815.4
2019-Apr-22 08:30N 26°13' W 079°33'713.7
2019-Apr-22 08:01N 26°14' W 079°26'3416.7
2019-Apr-22 06:00N 26°12' W 078°48'8614.4 020 / 161020.410.8 22.015.328.0
2019-Apr-22 00:00N 25°30' W 077°24'110 4.5 010 / 131019.210.8 23.012.627.0
2019-Apr-20 23:17N 25°52' W 079°24'415.6
2019-Apr-20 23:00N 25°48' W 079°26'816.6
2019-Apr-20 22:30N 25°40' W 079°29'918.0
2019-Apr-20 22:00N 25°31' W 079°30'17517.5
2019-Apr-20 12:00N 23°30' W 081°48'38 1.6 310 / 191015.510.8 23.016.528.0
2019-Apr-19 12:00N 23°12' W 082°24'19416.2 160 / 161012.210.8 25.023.528.2
2019-Apr-19 00:00N 25°18' W 079°42'2017.9 130 / 201013.510.8 26.021.528.0
2019-Apr-18 22:52N 25°38' W 079°46'513.9
2019-Apr-18 22:30N 25°43' W 079°47'713.5
2019-Apr-18 22:00N 25°49' W 079°49'713.4
2019-Apr-18 21:30N 25°54' W 079°55'714.1
2019-Apr-18 21:01N 25°59' W 079°59'714.7
2019-Apr-18 20:30N 26°05' W 080°05'2 4.0
2019-Apr-18 20:00N 26°05' W 080°07'0 0.0
2019-Apr-18 19:30N 26°05' W 080°07'0 0.0
2019-Apr-18 19:00N 26°05' W 080°07'0 0.0
2019-Apr-18 18:27N 26°05' W 080°07'0 0.0
2019-Apr-18 18:00N 26°05' W 080°07'0 0.0
2019-Apr-18 17:30N 26°05' W 080°07'0 0.0
2019-Apr-18 17:00N 26°05' W 080°07'0 0.0
2019-Apr-18 16:30N 26°05' W 080°07'0 0.0
2019-Apr-18 16:00N 26°05' W 080°07'0 0.0
2019-Apr-18 15:30N 26°05' W 080°07'0 0.0
2019-Apr-18 15:00N 26°05' W 080°07'0 0.0
2019-Apr-18 14:30N 26°05' W 080°07'0 0.0
2019-Apr-18 14:00N 26°05' W 080°07'0 0.0
2019-Apr-18 13:30N 26°05' W 080°07'0 0.0
2019-Apr-18 13:00N 26°05' W 080°07'0 0.0
2019-Apr-18 12:30N 26°05' W 080°07'0 0.0
2019-Apr-18 11:57N 26°05' W 080°07'0 0.0
2019-Apr-18 11:27N 26°05' W 080°07'0 0.0
2019-Apr-18 11:00N 26°05' W 080°07'2 4.4
2019-Apr-18 10:30N 26°06' W 080°05'5 9.8
2019-Apr-18 10:01N 26°04' W 079°60'714.4
2019-Apr-18 09:30N 25°58' W 079°55'713.9
2019-Apr-18 09:00N 25°53' W 079°50'713.9
2019-Apr-18 08:30N 25°46' W 079°47'714.0
2019-Apr-18 08:00N 25°40' W 079°45'714.2
2019-Apr-18 07:30N 25°33' W 079°45'714.1
2019-Apr-18 07:01N 25°26' W 079°45'25713.5
2019-Apr-17 12:00N 23°24' W 083°54'22018.4 110 / 211016.210.8 25.020.428.0
2019-Apr-17 00:00N 20°48' W 086°42'2099.0 110 / 161015.510.8 28.022.128.9
2019-Apr-16 23:47N 20°35' W 086°58'415.3
2019-Apr-16 23:30N 20°30' W 086°59'2 2.9
2019-Apr-16 22:57N 20°29' W 086°59'0 0.0
2019-Apr-16 22:30N 20°29' W 086°59'0 0.0
2019-Apr-16 21:57N 20°29' W 086°59'0 0.0
2019-Apr-16 21:30N 20°29' W 086°59'0 0.0
2019-Apr-16 20:51N 20°29' W 086°59'0 0.0
2019-Apr-16 20:27N 20°29' W 086°59'0 0.0
2019-Apr-16 20:00N 20°29' W 086°59'0 0.0
2019-Apr-16 19:30N 20°29' W 086°59'0 0.0
2019-Apr-16 19:00N 20°29' W 086°59'0 0.0
2019-Apr-16 18:27N 20°29' W 086°59'0 0.0
2019-Apr-16 18:00N 20°29' W 086°59'0 0.0
2019-Apr-16 17:30N 20°29' W 086°59'0 0.0
2019-Apr-16 16:57N 20°29' W 086°59'0 0.0
2019-Apr-16 16:30N 20°29' W 086°59'0 0.0
2019-Apr-16 16:00N 20°29' W 086°59'0 0.0
2019-Apr-16 15:30N 20°29' W 086°59'0 0.0
2019-Apr-16 15:00N 20°29' W 086°59'0 0.0
2019-Apr-16 14:30N 20°29' W 086°59'0 0.0
2019-Apr-16 13:54N 20°29' W 086°59'0 0.0
2019-Apr-16 13:30N 20°29' W 086°59'0 0.0
2019-Apr-16 13:00N 20°29' W 086°59'0 0.0
2019-Apr-16 12:30N 20°29' W 086°59'0 0.0
2019-Apr-16 12:00N 20°29' W 086°59'1 2.7
2019-Apr-16 11:30N 20°30' W 086°60'3 6.9
2019-Apr-16 11:00N 20°28' W 087°03'4611.4
2019-Apr-16 07:00N 19°42' W 087°00'24 1.3 090 / 151015.9 26.023.1
2019-Apr-15 13:00N 19°18' W 087°00'32846.8 130 / 61014.5 5.4 27.024.128.4
2019-Apr-15 06:00N 24°42' W 086°06'   130 / 181014.310.8 26.019.928.0

Dump ship's entire track history